sensor_id;sensor_type;location;lat;lon;timestamp;pressure;altitude;pressure_sealevel;temperature;humidity
17781;BME280;8498;52.516;13.790;2023-11-21T00:02:29;100305.78;;;9.95;100.00
17781;BME280;8498;52.516;13.790;2023-11-21T00:07:51;100308.09;;;9.87;100.00
17781;BME280;8498;52.516;13.790;2023-11-21T00:13:14;100316.06;;;9.87;100.00
17781;BME280;8498;52.516;13.790;2023-11-21T00:18:36;100335.81;;;9.83;100.00
17781;BME280;8498;52.516;13.790;2023-11-21T00:23:59;100330.50;;;9.83;100.00
17781;BME280;8498;52.516;13.790;2023-11-21T00:29:21;100344.22;;;9.64;100.00
17781;BME280;8498;52.516;13.790;2023-11-21T00:34:44;100351.72;;;9.57;100.00
17781;BME280;8498;52.516;13.790;2023-11-21T00:40:06;100360.44;;;9.47;100.00
17781;BME280;8498;52.516;13.790;2023-11-21T00:45:30;100363.19;;;9.33;100.00
17781;BME280;8498;52.516;13.790;2023-11-21T00:50:52;100372.94;;;9.32;100.00
17781;BME280;8498;52.516;13.790;2023-11-21T00:56:15;100368.03;;;9.26;100.00
17781;BME280;8498;52.516;13.790;2023-11-21T01:01:37;100368.03;;;9.26;100.00
17781;BME280;8498;52.516;13.790;2023-11-21T01:07:00;100387.97;;;9.19;100.00
17781;BME280;8498;52.516;13.790;2023-11-21T01:12:23;100388.72;;;8.94;100.00
17781;BME280;8498;52.516;13.790;2023-11-21T01:17:47;100400.03;;;8.83;100.00
17781;BME280;8498;52.516;13.790;2023-11-21T01:23:10;100404.22;;;8.73;100.00
17781;BME280;8498;52.516;13.790;2023-11-21T01:28:32;100411.44;;;8.71;100.00
17781;BME280;8498;52.516;13.790;2023-11-21T01:33:55;100418.28;;;8.61;100.00
17781;BME280;8498;52.516;13.790;2023-11-21T01:39:18;100422.06;;;8.57;100.00
17781;BME280;8498;52.516;13.790;2023-11-21T01:44:46;100422.66;;;8.48;100.00
17781;BME280;8498;52.516;13.790;2023-11-21T01:50:11;100430.03;;;8.43;100.00
17781;BME280;8498;52.516;13.790;2023-11-21T01:55:35;100439.56;;;8.31;100.00
17781;BME280;8498;52.516;13.790;2023-11-21T02:00:58;100429.75;;;8.33;100.00
17781;BME280;8498;52.516;13.790;2023-11-21T02:06:23;100443.84;;;8.34;100.00
17781;BME280;8498;52.516;13.790;2023-11-21T02:11:47;100444.78;;;8.33;100.00
17781;BME280;8498;52.516;13.790;2023-11-21T02:17:10;100443.94;;;8.32;100.00
17781;BME280;8498;52.516;13.790;2023-11-21T02:22:34;100452.50;;;8.22;100.00
17781;BME280;8498;52.516;13.790;2023-11-21T02:28:01;100444.47;;;8.23;100.00
17781;BME280;8498;52.516;13.790;2023-11-21T02:33:24;100455.91;;;8.24;100.00
17781;BME280;8498;52.516;13.790;2023-11-21T02:38:47;100449.41;;;8.15;100.00
17781;BME280;8498;52.516;13.790;2023-11-21T02:44:10;100459.13;;;8.15;100.00
17781;BME280;8498;52.516;13.790;2023-11-21T02:49:32;100465.75;;;8.07;100.00
17781;BME280;8498;52.516;13.790;2023-11-21T02:54:57;100475.75;;;8.02;100.00
17781;BME280;8498;52.516;13.790;2023-11-21T03:00:20;100486.63;;;7.98;100.00
17781;BME280;8498;52.516;13.790;2023-11-21T03:05:46;100479.63;;;7.97;100.00
17781;BME280;8498;52.516;13.790;2023-11-21T03:11:09;100485.84;;;7.96;100.00
17781;BME280;8498;52.516;13.790;2023-11-21T03:16:32;100486.34;;;7.88;100.00
17781;BME280;8498;52.516;13.790;2023-11-21T03:21:55;100481.22;;;7.85;100.00
17781;BME280;8498;52.516;13.790;2023-11-21T03:27:18;100492.81;;;7.83;100.00
17781;BME280;8498;52.516;13.790;2023-11-21T03:32:41;100494.22;;;7.74;100.00
17781;BME280;8498;52.516;13.790;2023-11-21T03:38:03;100506.69;;;7.72;100.00
17781;BME280;8498;52.516;13.790;2023-11-21T03:43:26;100515.75;;;7.68;100.00
17781;BME280;8498;52.516;13.790;2023-11-21T03:48:49;100519.66;;;7.61;100.00
17781;BME280;8498;52.516;13.790;2023-11-21T03:54:11;100534.19;;;7.54;100.00
17781;BME280;8498;52.516;13.790;2023-11-21T03:59:34;100527.38;;;7.50;100.00
17781;BME280;8498;52.516;13.790;2023-11-21T04:04:58;100544.53;;;7.43;100.00
17781;BME280;8498;52.516;13.790;2023-11-21T04:10:20;100545.63;;;7.38;100.00
17781;BME280;8498;52.516;13.790;2023-11-21T04:15:44;100545.31;;;7.29;100.00
17781;BME280;8498;52.516;13.790;2023-11-21T04:21:06;100549.25;;;7.22;100.00
17781;BME280;8498;52.516;13.790;2023-11-21T04:26:30;100557.16;;;7.22;100.00
17781;BME280;8498;52.516;13.790;2023-11-21T04:31:52;100559.41;;;7.14;100.00
17781;BME280;8498;52.516;13.790;2023-11-21T04:37:15;100567.84;;;7.05;100.00
17781;BME280;8498;52.516;13.790;2023-11-21T04:42:37;100576.59;;;7.05;100.00
17781;BME280;8498;52.516;13.790;2023-11-21T04:48:00;100588.44;;;6.98;100.00
17781;BME280;8498;52.516;13.790;2023-11-21T04:53:23;100583.34;;;6.95;100.00
17781;BME280;8498;52.516;13.790;2023-11-21T04:58:45;100588.06;;;6.88;100.00
17781;BME280;8498;52.516;13.790;2023-11-21T05:04:07;100595.06;;;6.89;100.00
17781;BME280;8498;52.516;13.790;2023-11-21T05:09:33;100610.22;;;6.86;100.00
17781;BME280;8498;52.516;13.790;2023-11-21T05:14:56;100619.00;;;6.86;100.00
17781;BME280;8498;52.516;13.790;2023-11-21T05:20:20;100619.09;;;6.85;100.00
17781;BME280;8498;52.516;13.790;2023-11-21T05:25:43;100632.59;;;6.79;100.00
17781;BME280;8498;52.516;13.790;2023-11-21T05:31:06;100633.53;;;6.78;100.00
17781;BME280;8498;52.516;13.790;2023-11-21T05:36:38;100637.28;;;6.74;100.00
17781;BME280;8498;52.516;13.790;2023-11-21T05:42:00;100643.66;;;6.70;100.00
17781;BME280;8498;52.516;13.790;2023-11-21T05:47:22;100649.88;;;6.69;100.00
17781;BME280;8498;52.516;13.790;2023-11-21T05:52:46;100657.78;;;6.69;100.00
17781;BME280;8498;52.516;13.790;2023-11-21T05:58:09;100675.75;;;6.62;100.00
17781;BME280;8498;52.516;13.790;2023-11-21T06:03:32;100686.22;;;6.63;100.00
17781;BME280;8498;52.516;13.790;2023-11-21T06:08:54;100690.88;;;6.58;100.00
17781;BME280;8498;52.516;13.790;2023-11-21T06:14:18;100693.97;;;6.67;100.00
17781;BME280;8498;52.516;13.790;2023-11-21T06:19:40;100702.50;;;6.72;100.00
17781;BME280;8498;52.516;13.790;2023-11-21T06:25:03;100704.72;;;6.63;100.00
17781;BME280;8498;52.516;13.790;2023-11-21T06:30:27;100710.38;;;6.73;100.00
17781;BME280;8498;52.516;13.790;2023-11-21T06:35:51;100725.50;;;6.70;100.00
17781;BME280;8498;52.516;13.790;2023-11-21T06:41:13;100736.75;;;6.73;100.00
17781;BME280;8498;52.516;13.790;2023-11-21T06:46:37;100740.41;;;6.71;100.00
17781;BME280;8498;52.516;13.790;2023-11-21T06:52:05;100749.03;;;6.74;100.00
17781;BME280;8498;52.516;13.790;2023-11-21T06:57:27;100756.25;;;6.71;100.00
17781;BME280;8498;52.516;13.790;2023-11-21T07:02:50;100758.75;;;6.74;100.00
17781;BME280;8498;52.516;13.790;2023-11-21T07:08:12;100761.38;;;6.74;100.00
17781;BME280;8498;52.516;13.790;2023-11-21T07:13:35;100773.09;;;6.68;100.00
17781;BME280;8498;52.516;13.790;2023-11-21T07:18:58;100779.22;;;6.69;100.00
17781;BME280;8498;52.516;13.790;2023-11-21T07:24:21;100782.84;;;6.66;100.00
17781;BME280;8498;52.516;13.790;2023-11-21T07:29:48;100790.41;;;6.74;100.00
17781;BME280;8498;52.516;13.790;2023-11-21T07:35:11;100796.44;;;6.76;100.00
17781;BME280;8498;52.516;13.790;2023-11-21T07:40:33;100793.34;;;6.68;100.00
17781;BME280;8498;52.516;13.790;2023-11-21T07:45:56;100799.56;;;6.67;100.00
17781;BME280;8498;52.516;13.790;2023-11-21T07:51:19;100799.41;;;6.70;100.00
17781;BME280;8498;52.516;13.790;2023-11-21T07:56:41;100808.13;;;6.72;100.00
17781;BME280;8498;52.516;13.790;2023-11-21T08:02:04;100815.97;;;6.73;100.00
17781;BME280;8498;52.516;13.790;2023-11-21T08:07:27;100822.09;;;6.74;100.00
17781;BME280;8498;52.516;13.790;2023-11-21T08:12:49;100832.81;;;6.71;100.00
17781;BME280;8498;52.516;13.790;2023-11-21T08:18:13;100842.66;;;6.67;100.00
17781;BME280;8498;52.516;13.790;2023-11-21T08:23:37;100850.63;;;6.66;100.00
17781;BME280;8498;52.516;13.790;2023-11-21T08:28:59;100847.06;;;6.67;100.00
17781;BME280;8498;52.516;13.790;2023-11-21T08:34:22;100855.91;;;6.66;100.00
17781;BME280;8498;52.516;13.790;2023-11-21T08:39:45;100851.91;;;6.76;100.00
17781;BME280;8498;52.516;13.790;2023-11-21T08:45:08;100853.78;;;6.74;100.00
17781;BME280;8498;52.516;13.790;2023-11-21T08:50:31;100862.38;;;6.77;100.00
17781;BME280;8498;52.516;13.790;2023-11-21T08:55:53;100867.72;;;6.76;100.00
17781;BME280;8498;52.516;13.790;2023-11-21T09:01:16;100875.38;;;6.82;100.00
17781;BME280;8498;52.516;13.790;2023-11-21T09:06:40;100886.72;;;6.84;100.00
17781;BME280;8498;52.516;13.790;2023-11-21T09:12:03;100889.69;;;6.95;100.00
17781;BME280;8498;52.516;13.790;2023-11-21T09:17:26;100901.53;;;6.86;100.00
17781;BME280;8498;52.516;13.790;2023-11-21T09:22:49;100911.16;;;6.87;100.00
17781;BME280;8498;52.516;13.790;2023-11-21T09:28:13;100915.97;;;6.79;100.00
17781;BME280;8498;52.516;13.790;2023-11-21T09:33:35;100932.53;;;6.83;100.00
17781;BME280;8498;52.516;13.790;2023-11-21T09:38:57;100929.03;;;6.82;100.00
17781;BME280;8498;52.516;13.790;2023-11-21T09:44:35;100931.97;;;6.76;100.00
17781;BME280;8498;52.516;13.790;2023-11-21T09:49:59;100947.13;;;6.73;100.00
17781;BME280;8498;52.516;13.790;2023-11-21T09:55:27;100951.47;;;6.74;100.00
17781;BME280;8498;52.516;13.790;2023-11-21T10:00:53;100956.09;;;6.69;100.00
17781;BME280;8498;52.516;13.790;2023-11-21T10:06:16;100962.59;;;6.61;100.00
17781;BME280;8498;52.516;13.790;2023-11-21T10:11:43;100971.50;;;6.59;100.00
17781;BME280;8498;52.516;13.790;2023-11-21T10:17:07;100972.00;;;6.48;100.00
17781;BME280;8498;52.516;13.790;2023-11-21T10:22:31;100962.25;;;6.50;100.00
17781;BME280;8498;52.516;13.790;2023-11-21T10:28:02;100965.44;;;6.38;100.00
17781;BME280;8498;52.516;13.790;2023-11-21T10:33:28;100978.66;;;6.38;100.00
17781;BME280;8498;52.516;13.790;2023-11-21T10:38:55;100980.19;;;6.23;100.00
17781;BME280;8498;52.516;13.790;2023-11-21T10:44:18;100984.91;;;6.17;100.00
17781;BME280;8498;52.516;13.790;2023-11-21T10:49:44;100981.97;;;6.23;100.00
17781;BME280;8498;52.516;13.790;2023-11-21T10:55:19;100986.47;;;6.21;100.00
17781;BME280;8498;52.516;13.790;2023-11-21T11:00:44;100997.72;;;6.24;100.00
17781;BME280;8498;52.516;13.790;2023-11-21T11:06:08;100985.22;;;6.30;100.00
17781;BME280;8498;52.516;13.790;2023-11-21T11:11:33;101000.69;;;6.37;100.00
17781;BME280;8498;52.516;13.790;2023-11-21T11:16:56;101008.09;;;6.29;100.00
17781;BME280;8498;52.516;13.790;2023-11-21T11:39:29;101039.09;;;6.24;100.00
17781;BME280;8498;52.516;13.790;2023-11-21T11:44:53;101053.06;;;6.26;100.00
17781;BME280;8498;52.516;13.790;2023-11-21T11:50:17;101048.03;;;6.21;100.00
17781;BME280;8498;52.516;13.790;2023-11-21T11:55:40;101057.44;;;6.27;100.00
17781;BME280;8498;52.516;13.790;2023-11-21T12:01:06;101062.66;;;6.29;100.00
17781;BME280;8498;52.516;13.790;2023-11-21T12:06:33;101073.66;;;6.38;100.00
17781;BME280;8498;52.516;13.790;2023-11-21T12:11:57;101083.91;;;6.44;100.00
17781;BME280;8498;52.516;13.790;2023-11-21T12:17:20;101085.50;;;6.48;100.00
17781;BME280;8498;52.516;13.790;2023-11-21T12:22:45;101097.31;;;6.40;100.00
17781;BME280;8498;52.516;13.790;2023-11-21T12:28:10;101108.75;;;6.40;100.00
17781;BME280;8498;52.516;13.790;2023-11-21T12:33:34;101116.44;;;6.45;100.00
17781;BME280;8498;52.516;13.790;2023-11-21T12:38:57;101119.47;;;6.36;100.00
17781;BME280;8498;52.516;13.790;2023-11-21T12:44:20;101123.59;;;6.43;100.00
17781;BME280;8498;52.516;13.790;2023-11-21T12:49:46;101136.06;;;6.39;100.00
17781;BME280;8498;52.516;13.790;2023-11-21T12:55:08;101135.13;;;6.40;100.00
17781;BME280;8498;52.516;13.790;2023-11-21T13:00:37;101130.09;;;6.14;100.00
17781;BME280;8498;52.516;13.790;2023-11-21T13:06:00;101143.84;;;6.02;100.00
17781;BME280;8498;52.516;13.790;2023-11-21T13:11:23;101149.47;;;5.93;100.00
17781;BME280;8498;52.516;13.790;2023-11-21T13:16:48;101159.50;;;6.05;100.00
17781;BME280;8498;52.516;13.790;2023-11-21T13:22:11;101165.53;;;6.08;100.00
17781;BME280;8498;52.516;13.790;2023-11-21T13:27:33;101164.13;;;6.00;100.00
17781;BME280;8498;52.516;13.790;2023-11-21T13:32:56;101182.53;;;6.01;100.00
17781;BME280;8498;52.516;13.790;2023-11-21T13:38:27;101194.78;;;6.02;100.00
17781;BME280;8498;52.516;13.790;2023-11-21T13:43:54;101202.19;;;5.93;100.00
17781;BME280;8498;52.516;13.790;2023-11-21T13:49:25;101198.06;;;5.85;100.00
17781;BME280;8498;52.516;13.790;2023-11-21T13:54:49;101204.53;;;5.78;100.00
17781;BME280;8498;52.516;13.790;2023-11-21T14:00:12;101207.34;;;5.74;100.00
17781;BME280;8498;52.516;13.790;2023-11-21T14:05:54;101225.34;;;5.63;100.00
17781;BME280;8498;52.516;13.790;2023-11-21T14:11:18;101242.25;;;5.57;100.00
17781;BME280;8498;52.516;13.790;2023-11-21T14:16:45;101247.19;;;5.43;100.00
17781;BME280;8498;52.516;13.790;2023-11-21T14:22:10;101271.19;;;5.35;100.00
17781;BME280;8498;52.516;13.790;2023-11-21T14:27:33;101274.84;;;5.31;100.00
17781;BME280;8498;52.516;13.790;2023-11-21T14:33:03;101274.91;;;5.30;100.00
17781;BME280;8498;52.516;13.790;2023-11-21T14:38:26;101286.25;;;5.32;100.00
17781;BME280;8498;52.516;13.790;2023-11-21T14:43:49;101287.41;;;5.25;100.00
17781;BME280;8498;52.516;13.790;2023-11-21T14:49:13;101294.72;;;5.16;100.00
17781;BME280;8498;52.516;13.790;2023-11-21T14:54:44;101293.88;;;5.16;100.00
17781;BME280;8498;52.516;13.790;2023-11-21T15:00:09;101305.66;;;5.06;100.00
17781;BME280;8498;52.516;13.790;2023-11-21T15:05:51;101318.16;;;4.99;100.00
17781;BME280;8498;52.516;13.790;2023-11-21T15:11:14;101325.41;;;4.93;100.00
17781;BME280;8498;52.516;13.790;2023-11-21T15:16:39;101343.88;;;4.91;100.00
17781;BME280;8498;52.516;13.790;2023-11-21T15:22:02;101355.13;;;4.70;100.00
17781;BME280;8498;52.516;13.790;2023-11-21T15:27:25;101371.97;;;4.66;100.00
17781;BME280;8498;52.516;13.790;2023-11-21T15:32:49;101368.53;;;4.36;100.00
17781;BME280;8498;52.516;13.790;2023-11-21T15:38:12;101372.00;;;4.36;100.00
17781;BME280;8498;52.516;13.790;2023-11-21T15:43:36;101385.06;;;4.39;100.00
17781;BME280;8498;52.516;13.790;2023-11-21T15:48:59;101390.50;;;4.35;100.00
17781;BME280;8498;52.516;13.790;2023-11-21T15:54:24;101398.94;;;4.45;100.00
17781;BME280;8498;52.516;13.790;2023-11-21T15:59:48;101401.91;;;4.34;100.00
17781;BME280;8498;52.516;13.790;2023-11-21T16:05:10;101408.13;;;4.31;100.00
17781;BME280;8498;52.516;13.790;2023-11-21T16:10:36;101413.19;;;4.37;100.00
17781;BME280;8498;52.516;13.790;2023-11-21T16:15:58;101421.16;;;4.36;100.00
17781;BME280;8498;52.516;13.790;2023-11-21T16:21:22;101436.19;;;4.31;99.02
17781;BME280;8498;52.516;13.790;2023-11-21T16:26:46;101443.34;;;4.26;97.62
17781;BME280;8498;52.516;13.790;2023-11-21T16:32:08;101454.13;;;4.17;98.07
17781;BME280;8498;52.516;13.790;2023-11-21T16:37:33;101463.44;;;4.28;97.73
17781;BME280;8498;52.516;13.790;2023-11-21T16:42:55;101478.91;;;4.39;98.82
17781;BME280;8498;52.516;13.790;2023-11-21T16:48:19;101481.56;;;4.37;97.47
17781;BME280;8498;52.516;13.790;2023-11-21T16:53:41;101492.28;;;4.31;95.82
17781;BME280;8498;52.516;13.790;2023-11-21T16:59:05;101493.16;;;4.32;97.85
17781;BME280;8498;52.516;13.790;2023-11-21T17:04:27;101503.69;;;4.32;96.95
17781;BME280;8498;52.516;13.790;2023-11-21T17:09:50;101515.16;;;4.29;96.32
17781;BME280;8498;52.516;13.790;2023-11-21T17:15:13;101519.53;;;4.29;96.98
17781;BME280;8498;52.516;13.790;2023-11-21T17:20:36;101522.25;;;4.26;96.25
17781;BME280;8498;52.516;13.790;2023-11-21T17:25:59;101528.53;;;4.22;96.35
17781;BME280;8498;52.516;13.790;2023-11-21T17:31:21;101534.88;;;4.15;95.52
17781;BME280;8498;52.516;13.790;2023-11-21T17:36:47;101554.91;;;4.19;97.62
17781;BME280;8498;52.516;13.790;2023-11-21T17:42:10;101562.75;;;4.20;96.62
17781;BME280;8498;52.516;13.790;2023-11-21T17:47:32;101575.06;;;4.18;97.14
17781;BME280;8498;52.516;13.790;2023-11-21T17:52:55;101590.97;;;4.15;96.90
17781;BME280;8498;52.516;13.790;2023-11-21T17:58:18;101594.47;;;4.14;96.47
17781;BME280;8498;52.516;13.790;2023-11-21T18:03:40;101604.28;;;4.07;95.91
17781;BME280;8498;52.516;13.790;2023-11-21T18:09:03;101603.53;;;4.04;96.27
17781;BME280;8498;52.516;13.790;2023-11-21T18:14:26;101619.34;;;4.02;97.44
17781;BME280;8498;52.516;13.790;2023-11-21T18:19:51;101631.59;;;4.03;96.01
17781;BME280;8498;52.516;13.790;2023-11-21T18:25:17;101628.81;;;4.08;95.65
17781;BME280;8498;52.516;13.790;2023-11-21T18:30:40;101649.34;;;3.94;93.41
17781;BME280;8498;52.516;13.790;2023-11-21T18:36:06;101668.69;;;3.91;95.26
17781;BME280;8498;52.516;13.790;2023-11-21T18:41:29;101673.81;;;3.96;94.90
17781;BME280;8498;52.516;13.790;2023-11-21T18:46:54;101676.38;;;3.99;93.88
17781;BME280;8498;52.516;13.790;2023-11-21T18:52:16;101684.34;;;3.96;93.46
17781;BME280;8498;52.516;13.790;2023-11-21T18:57:38;101687.16;;;3.88;93.16
17781;BME280;8498;52.516;13.790;2023-11-21T19:03:02;101697.84;;;3.82;92.92
17781;BME280;8498;52.516;13.790;2023-11-21T19:08:25;101703.91;;;3.84;92.82
17781;BME280;8498;52.516;13.790;2023-11-21T19:13:48;101696.06;;;3.83;92.58
17781;BME280;8498;52.516;13.790;2023-11-21T19:19:12;101710.94;;;3.84;93.41
17781;BME280;8498;52.516;13.790;2023-11-21T19:24:35;101732.88;;;3.83;91.97
17781;BME280;8498;52.516;13.790;2023-11-21T19:29:58;101733.66;;;3.85;91.99
17781;BME280;8498;52.516;13.790;2023-11-21T19:35:20;101736.38;;;3.83;92.35
17781;BME280;8498;52.516;13.790;2023-11-21T19:40:43;101739.00;;;3.83;92.93
17781;BME280;8498;52.516;13.790;2023-11-21T19:46:06;101756.47;;;3.84;92.72
17781;BME280;8498;52.516;13.790;2023-11-21T19:51:29;101758.31;;;3.81;91.37
17781;BME280;8498;52.516;13.790;2023-11-21T19:56:51;101777.56;;;3.83;90.92
17781;BME280;8498;52.516;13.790;2023-11-21T20:02:14;101781.09;;;3.82;90.72
17781;BME280;8498;52.516;13.790;2023-11-21T20:07:36;101785.34;;;3.86;90.67
17781;BME280;8498;52.516;13.790;2023-11-21T20:12:59;101781.84;;;3.85;90.81
17781;BME280;8498;52.516;13.790;2023-11-21T20:18:28;101788.88;;;3.85;90.89
17781;BME280;8498;52.516;13.790;2023-11-21T20:23:53;101793.31;;;3.83;91.72
17781;BME280;8498;52.516;13.790;2023-11-21T20:29:17;101794.31;;;3.77;90.41
17781;BME280;8498;52.516;13.790;2023-11-21T20:34:39;101812.81;;;3.73;90.21
17781;BME280;8498;52.516;13.790;2023-11-21T20:40:02;101813.94;;;3.62;90.55
17781;BME280;8498;52.516;13.790;2023-11-21T20:45:31;101820.94;;;3.62;90.95
17781;BME280;8498;52.516;13.790;2023-11-21T20:50:54;101826.28;;;3.57;90.84
17781;BME280;8498;52.516;13.790;2023-11-21T20:56:16;101828.91;;;3.57;89.95
17781;BME280;8498;52.516;13.790;2023-11-21T21:01:41;101848.34;;;3.50;90.85
17781;BME280;8498;52.516;13.790;2023-11-21T21:07:04;101858.06;;;3.44;91.88
17781;BME280;8498;52.516;13.790;2023-11-21T21:12:28;101866.00;;;3.42;92.09
17781;BME280;8498;52.516;13.790;2023-11-21T21:17:51;101866.00;;;3.42;91.56
17781;BME280;8498;52.516;13.790;2023-11-21T21:23:13;101864.47;;;3.32;91.76
17781;BME280;8498;52.516;13.790;2023-11-21T21:28:38;101864.56;;;3.26;91.94
17781;BME280;8498;52.516;13.790;2023-11-21T21:34:00;101857.63;;;3.22;91.34
17781;BME280;8498;52.516;13.790;2023-11-21T21:39:23;101870.00;;;3.15;92.44
17781;BME280;8498;52.516;13.790;2023-11-21T21:44:46;101885.94;;;3.06;92.71
17781;BME280;8498;52.516;13.790;2023-11-21T21:50:09;101899.28;;;2.94;93.51
17781;BME280;8498;52.516;13.790;2023-11-21T21:55:31;101903.81;;;2.84;93.87
17781;BME280;8498;52.516;13.790;2023-11-21T22:00:54;101917.09;;;2.75;94.62
17781;BME280;8498;52.516;13.790;2023-11-21T22:06:17;101926.88;;;2.64;95.69
17781;BME280;8498;52.516;13.790;2023-11-21T22:11:40;101930.44;;;2.60;95.79
17781;BME280;8498;52.516;13.790;2023-11-21T22:17:02;101921.78;;;2.55;94.85
17781;BME280;8498;52.516;13.790;2023-11-21T22:22:25;101924.50;;;2.49;95.63
17781;BME280;8498;52.516;13.790;2023-11-21T22:27:49;101926.16;;;2.54;95.84
17781;BME280;8498;52.516;13.790;2023-11-21T22:33:15;101936.69;;;2.53;94.72
17781;BME280;8498;52.516;13.790;2023-11-21T22:38:39;101940.28;;;2.47;94.35
17781;BME280;8498;52.516;13.790;2023-11-21T22:44:02;101942.03;;;2.47;94.58
17781;BME280;8498;52.516;13.790;2023-11-21T22:49:25;101944.56;;;2.50;93.60
17781;BME280;8498;52.516;13.790;2023-11-21T22:54:49;101965.66;;;2.44;94.69
17781;BME280;8498;52.516;13.790;2023-11-21T23:00:11;101958.69;;;2.43;94.21
17781;BME280;8498;52.516;13.790;2023-11-21T23:05:37;101968.38;;;2.38;94.10
17781;BME280;8498;52.516;13.790;2023-11-21T23:10:59;101983.31;;;2.33;95.01
17781;BME280;8498;52.516;13.790;2023-11-21T23:16:22;101984.19;;;2.30;94.43
17781;BME280;8498;52.516;13.790;2023-11-21T23:21:44;101993.88;;;2.27;94.93
17781;BME280;8498;52.516;13.790;2023-11-21T23:27:07;101975.66;;;2.17;95.17
17781;BME280;8498;52.516;13.790;2023-11-21T23:32:31;101981.78;;;2.15;95.50
17781;BME280;8498;52.516;13.790;2023-11-21T23:37:53;101990.56;;;2.12;96.35
17781;BME280;8498;52.516;13.790;2023-11-21T23:43:16;101992.47;;;1.98;96.57
17781;BME280;8498;52.516;13.790;2023-11-21T23:48:38;101998.66;;;1.93;97.41
17781;BME280;8498;52.516;13.790;2023-11-21T23:54:01;101996.06;;;1.88;97.23
17781;BME280;8498;52.516;13.790;2023-11-21T23:59:24;102003.91;;;1.91;96.93
